Terminal Aerodrome Forecast
Issued by NWS Green Bay, WI

Home | Current Version | Previous Version | Text Only | Print | Product List | Glossary Off
Versions: 1 2 3 4 5 6 7 8 9 10 11 12 13 14 15 16 17 18 19 20 21 22 23 24 25 26 27 28

000
FTUS43 KGRB 201100
TAFGRB
TAF
KGRB 201131Z 2012/2112 27011KT P6SM SCT040
      TEMPO 2012/2016 -SHSN SCT025 BKN040
     FM201600 29014G25KT P6SM SCT030 BKN045
     FM202300 28010KT P6SM SCT050
     FM210800 26004KT P6SM SKC=

USA.gov is the U.S. government's official web portal to all federal, state and local government web resources and services.